Time;durP1;ratioP1;P1;durP2;ratioP2;P2;SDS_P1;SDS_P2;PMS_P1;PMS_P2;Temp;Humidity;BMP_temperature;BMP_pressure;BME280_temperature;BME280_humidity;BME280_pressure;Samples;Min_cycle;Max_cycle;Signal;HPM_P1;HPM_P2
2022/01/10 00:00:40;;;;;;;1.90;1.90;;;;;;;0.54;63.72;99963.26;104408;1277;137460;-74
2022/01/10 00:03:08;;;;;;;2.00;2.00;;;;;;;0.43;64.00;99962.48;104307;1277;96166;-74
2022/01/10 00:05:36;;;;;;;1.90;1.90;;;;;;;0.38;64.51;99966.30;104251;1277;138243;-73
2022/01/10 00:08:04;;;;;;;1.80;1.80;;;;;;;0.24;64.51;99970.70;104336;1277;109552;-74
2022/01/10 00:10:34;;;;;;;1.80;1.80;;;;;;;0.07;65.04;99969.52;104193;1277;138907;-74
2022/01/10 00:13:02;;;;;;;2.00;2.00;;;;;;;-0.04;65.36;99971.32;104306;1278;95985;-74
2022/01/10 00:15:30;;;;;;;1.80;1.80;;;;;;;-0.08;65.39;99977.73;104367;1279;108423;-74
2022/01/10 00:17:57;;;;;;;1.80;1.80;;;;;;;-0.17;65.95;99987.95;104198;1277;138641;-74
2022/01/10 00:20:25;;;;;;;1.90;1.90;;;;;;;-0.24;65.78;99987.70;104287;1278;95719;-74
2022/01/10 00:22:53;;;;;;;2.00;2.00;;;;;;;-0.31;66.18;99982.90;104135;1278;138332;-73
2022/01/10 00:25:23;;;;;;;1.80;1.80;;;;;;;-0.30;66.34;99979.41;104273;1277;109054;-73
2022/01/10 00:27:53;;;;;;;1.80;1.80;;;;;;;-0.25;66.22;99989.09;104366;1277;108738;-72
2022/01/10 00:30:23;;;;;;;1.80;1.80;;;;;;;-0.32;65.77;99990.92;104276;1277;138552;-73
2022/01/10 00:32:51;;;;;;;2.00;2.00;;;;;;;-0.50;66.13;99993.69;104240;1278;95645;-73
2022/01/10 00:35:21;;;;;;;1.90;1.90;;;;;;;-0.73;66.40;100006.82;104100;1277;138661;-72
2022/01/10 00:37:51;;;;;;;1.80;1.80;;;;;;;-0.90;67.25;100013.90;104314;1277;109752;-74
2022/01/10 00:40:19;;;;;;;1.90;1.90;;;;;;;-0.85;67.17;100014.85;104222;1277;138500;-72
2022/01/10 00:42:54;;;;;;;1.90;1.90;;;;;;;-1.06;67.52;100024.31;104386;1278;95173;-72
2022/01/10 00:45:26;;;;;;;2.30;2.20;;;;;;;-1.16;67.84;100027.99;104313;1278;106750;-72
2022/01/10 00:47:56;;;;;;;2.00;2.00;;;;;;;-1.25;67.89;100031.70;104419;1278;139201;-74
2022/01/10 00:50:24;;;;;;;2.30;2.20;;;;;;;-1.46;68.09;100028.56;104307;1277;95675;-73
2022/01/10 00:52:54;;;;;;;2.00;2.00;;;;;;;-1.67;68.79;100033.77;104272;1277;138791;-74
2022/01/10 00:55:21;;;;;;;2.20;2.10;;;;;;;-1.88;69.62;100049.95;104297;1278;107755;-72
2022/01/10 00:57:49;;;;;;;2.10;2.10;;;;;;;-1.93;69.99;100052.80;104295;1277;109758;-74
2022/01/10 01:00:17;;;;;;;2.20;2.10;;;;;;;-1.92;70.13;100057.54;104210;1277;139032;-72
2022/01/10 01:02:45;;;;;;;2.40;2.30;;;;;;;-1.82;70.19;100062.94;104295;1278;95803;-72
2022/01/10 01:05:17;;;;;;;2.20;2.10;;;;;;;-1.79;70.18;100068.73;104166;1278;138369;-72
2022/01/10 01:07:44;;;;;;;2.10;2.10;;;;;;;-1.78;69.90;100068.58;104612;1277;108162;-72
2022/01/10 01:10:47;;;;;;;2.00;2.00;;;;;;;-1.80;70.37;100075.66;104344;1277;95141;-74
2022/01/10 01:15:56;;;;;;;2.30;2.20;;;;;;;-1.88;70.36;100089.63;104635;1277;107684;-73
2022/01/10 01:24:07;;;;;;;2.40;2.30;;;;;;;-1.95;71.21;100101.66;104344;1277;138543;-74
2022/01/10 01:26:37;;;;;;;2.90;2.80;;;;;;;-1.94;71.37;100104.46;104339;1277;109489;-71
2022/01/10 01:29:07;;;;;;;2.20;2.10;;;;;;;-1.98;71.21;100109.44;104318;1277;139646;-73
2022/01/10 01:31:35;;;;;;;2.20;2.10;;;;;;;-2.11;71.55;100113.16;104376;1278;95478;-72
2022/01/10 01:34:04;;;;;;;2.20;2.10;;;;;;;-2.15;72.11;100111.17;104293;1278;95294;-73
2022/01/10 01:36:33;;;;;;;2.30;2.20;;;;;;;-2.02;71.95;100111.62;104095;1277;138405;-72
2022/01/10 01:39:10;;;;;;;2.30;2.20;;;;;;;-1.89;71.56;100108.40;104285;1277;109691;-73
2022/01/10 01:41:41;;;;;;;2.30;2.20;;;;;;;-1.83;71.69;100109.03;104337;1277;139192;-72
2022/01/10 01:44:10;;;;;;;2.20;2.10;;;;;;;-1.78;71.57;100115.91;104333;1278;95674;-72
2022/01/10 01:46:38;;;;;;;2.40;2.30;;;;;;;-1.81;71.61;100113.95;104278;1278;107726;-73
2022/01/10 01:49:06;;;;;;;2.20;2.10;;;;;;;-1.78;71.82;100118.34;104213;1280;139339;-72
2022/01/10 01:51:35;;;;;;;2.00;2.00;;;;;;;-1.66;71.59;100119.27;104352;1277;95226;-74
2022/01/10 01:54:04;;;;;;;2.10;2.00;;;;;;;-1.60;71.49;100117.45;104212;1278;138649;-71
2022/01/10 01:56:34;;;;;;;2.30;2.20;;;;;;;-1.71;71.82;100119.35;104460;1277;107791;-72
2022/01/10 01:59:03;;;;;;;2.20;2.10;;;;;;;-1.71;71.64;100119.52;104125;1280;139637;-73
2022/01/10 02:01:32;;;;;;;2.20;2.10;;;;;;;-1.75;72.04;100125.19;104317;1278;95981;-73
2022/01/10 02:04:00;;;;;;;2.00;2.00;;;;;;;-1.77;72.33;100125.85;104336;1277;96556;-74
2022/01/10 02:06:30;;;;;;;2.30;2.20;;;;;;;-1.85;72.54;100130.03;104195;1277;138446;-72
2022/01/10 02:08:57;;;;;;;2.40;2.30;;;;;;;-1.85;72.85;100128.13;104302;1279;108762;-72
2022/01/10 02:11:25;;;;;;;2.50;2.40;;;;;;;-1.74;72.78;100128.52;104305;1278;139344;-74
2022/01/10 02:13:53;;;;;;;2.10;2.10;;;;;;;-1.52;72.87;100125.63;104376;1280;95109;-73
2022/01/10 02:16:40;;;;;;;2.30;2.20;;;;;;;-1.27;72.02;100121.36;104295;1278;109664;-73
2022/01/10 02:19:12;;;;;;;2.20;2.10;;;;;;;-1.02;71.20;100126.82;104163;1280;138648;-74
2022/01/10 02:21:40;;;;;;;2.00;2.00;;;;;;;-0.93;70.59;100134.11;104394;1278;95231;-73
2022/01/10 02:24:08;;;;;;;2.20;2.10;;;;;;;-0.92;70.74;100136.56;104263;1278;138356;-74
2022/01/10 02:26:40;;;;;;;2.30;2.20;;;;;;;-0.94;70.41;100147.33;104353;1280;108764;-74
2022/01/10 02:29:08;;;;;;;2.00;2.00;;;;;;;-1.01;70.68;100156.81;104282;1278;139257;-72
2022/01/10 02:31:39;;;;;;;1.80;1.80;;;;;;;-1.03;70.79;100158.35;104566;1278;95684;-72
2022/01/10 02:34:08;;;;;;;1.90;1.90;;;;;;;-1.11;70.89;100165.70;104358;1278;95287;-74
2022/01/10 02:36:37;;;;;;;2.30;2.20;;;;;;;-1.25;71.27;100170.84;104507;1278;138326;-72
2022/01/10 02:39:09;;;;;;;2.00;2.00;;;;;;;-1.27;71.64;100177.27;104270;1278;109908;-72
2022/01/10 02:41:40;;;;;;;1.80;1.80;;;;;;;-1.14;71.43;100181.33;104369;1277;138828;-73
2022/01/10 02:44:11;;;;;;;1.90;1.90;;;;;;;-1.05;71.43;100181.30;104479;1280;95171;-74
2022/01/10 02:46:40;;;;;;;2.10;2.00;;;;;;;-1.05;71.23;100181.48;104275;1279;108357;-74
2022/01/10 02:49:26;;;;;;;2.00;2.00;;;;;;;-1.13;71.55;100186.39;104186;1277;138767;-73
2022/01/10 02:51:55;;;;;;;1.80;1.80;;;;;;;-1.26;71.83;100192.09;104367;1278;96042;-73
2022/01/10 02:54:25;;;;;;;1.80;1.80;;;;;;;-1.30;72.39;100194.63;104435;1279;137356;-74
2022/01/10 02:56:55;;;;;;;1.90;1.90;;;;;;;-1.27;72.40;100195.73;104311;1278;106897;-74
2022/01/10 02:59:23;;;;;;;2.00;2.00;;;;;;;-1.24;72.28;100200.33;104208;1278;139336;-74
2022/01/10 03:01:52;;;;;;;2.00;2.00;;;;;;;-1.19;72.63;100200.40;104393;1277;95308;-73
2022/01/10 03:04:21;;;;;;;2.00;2.00;;;;;;;-1.08;72.49;100203.56;104405;1280;95330;-74
2022/01/10 03:06:49;;;;;;;2.00;2.00;;;;;;;-0.98;72.70;100205.12;104340;1278;138193;-74
2022/01/10 03:09:17;;;;;;;1.90;1.90;;;;;;;-0.85;71.91;100214.23;104298;1277;110041;-74
2022/01/10 03:11:45;;;;;;;1.90;1.90;;;;;;;-0.82;71.98;100218.64;104192;1280;139455;-74
2022/01/10 03:14:13;;;;;;;1.70;1.70;;;;;;;-0.73;71.81;100222.45;104327;1280;95815;-74
2022/01/10 03:16:41;;;;;;;1.80;1.80;;;;;;;-0.70;71.53;100223.73;104366;1278;108865;-73
2022/01/10 03:19:09;;;;;;;1.90;1.90;;;;;;;-0.59;71.62;100224.61;104173;1280;139512;-74
2022/01/10 03:21:37;;;;;;;1.70;1.70;;;;;;;-0.46;71.13;100231.61;104283;1278;95769;-74
2022/01/10 03:24:05;;;;;;;1.80;1.80;;;;;;;-0.39;70.87;100233.63;104203;1278;140856;-73
2022/01/10 03:26:33;;;;;;;1.80;1.80;;;;;;;-0.40;70.82;100236.05;104303;1280;109298;-73
2022/01/10 03:29:03;;;;;;;1.90;1.90;;;;;;;-0.35;71.23;100243.98;104195;1280;138775;-74
2022/01/10 03:31:31;;;;;;;1.90;1.90;;;;;;;-0.19;70.91;100252.26;104294;1280;95325;-72
2022/01/10 03:33:59;;;;;;;1.80;1.80;;;;;;;-0.10;70.39;100257.11;104351;1278;96566;-72
2022/01/10 03:36:29;;;;;;;1.90;1.90;;;;;;;-0.04;70.21;100256.84;104249;1280;137968;-74
2022/01/10 03:38:57;;;;;;;1.70;1.70;;;;;;;-0.04;70.25;100259.10;104276;1277;109712;-75
2022/01/10 03:41:25;;;;;;;1.70;1.70;;;;;;;-0.05;70.15;100261.20;104250;1280;139088;-75
2022/01/10 03:43:53;;;;;;;1.60;1.60;;;;;;;-0.23;70.78;100261.80;104443;1277;96469;-73
2022/01/10 03:46:21;;;;;;;1.60;1.60;;;;;;;-0.27;71.29;100266.79;104331;1280;108850;-74
2022/01/10 03:48:49;;;;;;;1.80;1.80;;;;;;;-0.18;70.95;100272.52;104228;1279;138259;-73
2022/01/10 03:51:17;;;;;;;1.90;1.90;;;;;;;-0.26;71.26;100270.82;104350;1280;95311;-71
2022/01/10 03:53:45;;;;;;;1.80;1.80;;;;;;;-0.26;71.28;100280.06;104211;1279;138641;-75
2022/01/10 03:56:13;;;;;;;1.80;1.80;;;;;;;-0.27;71.54;100279.00;104360;1277;108160;-74
2022/01/10 03:58:43;;;;;;;1.90;1.90;;;;;;;-0.30;71.56;100282.96;104324;1277;109747;-73
2022/01/10 04:01:12;;;;;;;1.80;1.80;;;;;;;-0.20;71.73;100286.80;104126;1280;138256;-74
2022/01/10 04:03:43;;;;;;;1.70;1.70;;;;;;;-0.05;71.80;100289.80;104367;1280;95732;-75
2022/01/10 04:06:13;;;;;;;2.20;2.10;;;;;;;0.12;71.42;100295.29;104200;1280;138224;-74
2022/01/10 04:08:40;;;;;;;1.70;1.70;;;;;;;0.11;70.89;100301.21;104271;1280;109673;-73
2022/01/10 04:11:08;;;;;;;1.70;1.70;;;;;;;0.02;71.00;100299.16;104257;1280;139036;-73
2022/01/10 04:13:36;;;;;;;1.60;1.60;;;;;;;-0.06;71.00;100299.22;104313;1279;95709;-74
2022/01/10 04:16:04;;;;;;;1.60;1.60;;;;;;;-0.08;71.16;100304.08;104274;1280;108750;-75
2022/01/10 04:18:32;;;;;;;1.60;1.60;;;;;;;-0.12;71.07;100310.98;104168;1277;138756;-72
2022/01/10 04:21:00;;;;;;;1.70;1.70;;;;;;;-0.20;71.48;100315.92;104255;1278;95252;-74
2022/01/10 04:23:28;;;;;;;1.70;1.70;;;;;;;-0.25;71.45;100320.55;104204;1278;139583;-72
2022/01/10 04:25:56;;;;;;;1.70;1.70;;;;;;;-0.21;71.36;100324.98;104285;1280;108765;-74
2022/01/10 04:28:24;;;;;;;1.60;1.60;;;;;;;-0.27;71.36;100330.98;104273;1280;109988;-74
2022/01/10 04:30:53;;;;;;;1.70;1.70;;;;;;;-0.26;71.44;100333.10;104282;1278;138157;-73
2022/01/10 04:33:21;;;;;;;1.60;1.60;;;;;;;-0.29;71.37;100332.02;104342;1280;95803;-72
2022/01/10 04:35:50;;;;;;;1.60;1.60;;;;;;;-0.24;71.61;100336.27;104220;1278;138884;-74
2022/01/10 04:38:18;;;;;;;1.80;1.80;;;;;;;-0.18;71.10;100338.29;104380;1278;108723;-73
2022/01/10 04:40:47;;;;;;;1.90;1.90;;;;;;;-0.22;71.18;100343.29;104313;1278;97361;-72
2022/01/10 04:43:15;;;;;;;1.90;1.90;;;;;;;-0.18;71.36;100350.31;104201;1278;138238;-73
2022/01/10 04:45:43;;;;;;;1.70;1.70;;;;;;;-0.14;71.05;100345.34;104263;1280;108700;-74
2022/01/10 04:48:11;;;;;;;1.70;1.70;;;;;;;-0.16;70.88;100345.98;104241;1277;138050;-74
2022/01/10 04:53:21;;;;;;;1.70;1.70;;;;;;;-0.22;71.31;100356.71;104476;1280;138865;-74
2022/01/10 04:55:49;;;;;;;1.70;1.70;;;;;;;-0.25;70.95;100360.52;104314;1280;106883;-75
2022/01/10 04:58:18;;;;;;;1.70;1.70;;;;;;;-0.17;71.25;100362.55;104345;1279;109826;-72
2022/01/10 05:00:46;;;;;;;1.70;1.70;;;;;;;-0.14;71.06;100367.50;104166;1280;138735;-74
2022/01/10 05:03:17;;;;;;;1.80;1.80;;;;;;;-0.11;70.92;100371.90;104328;1278;95244;-75
2022/01/10 05:05:45;;;;;;;1.60;1.60;;;;;;;0.01;70.92;100373.15;104222;1280;138890;-73
2022/01/10 05:08:14;;;;;;;1.70;1.70;;;;;;;0.03;70.39;100374.94;104289;1278;108732;-74
2022/01/10 05:10:43;;;;;;;1.70;1.70;;;;;;;-0.07;70.30;100378.09;104365;1280;95267;-73
2022/01/10 05:13:11;;;;;;;1.70;1.70;;;;;;;-0.18;70.57;100378.09;104371;1278;138940;-73
2022/01/10 05:15:39;;;;;;;1.70;1.70;;;;;;;-0.19;70.94;100380.33;104303;1278;107687;-73
2022/01/10 05:18:09;;;;;;;1.60;1.60;;;;;;;-0.14;70.71;100385.81;104197;1278;138406;-74
2022/01/10 05:20:37;;;;;;;1.70;1.70;;;;;;;-0.12;70.73;100389.70;104378;1278;95239;-75
2022/01/10 05:23:05;;;;;;;1.70;1.70;;;;;;;-0.07;71.02;100391.17;104189;1278;138284;-75
2022/01/10 05:25:36;;;;;;;1.80;1.80;;;;;;;-0.02;70.42;100396.69;104379;1278;107740;-71
2022/01/10 05:28:10;;;;;;;1.70;1.70;;;;;;;0.08;70.61;100407.30;104292;1280;110001;-72
2022/01/10 05:30:39;;;;;;;1.80;1.80;;;;;;;0.09;70.27;100403.82;104339;1279;137955;-75
2022/01/10 05:33:08;;;;;;;1.80;1.80;;;;;;;0.14;70.09;100407.41;104378;1280;95690;-71
2022/01/10 05:35:44;;;;;;;1.70;1.70;;;;;;;0.26;70.36;100415.79;104145;1280;138876;-71
2022/01/10 05:38:13;;;;;;;1.70;1.70;;;;;;;0.48;69.91;100420.34;104241;1280;110358;-71
2022/01/10 05:40:41;;;;;;;1.60;1.60;;;;;;;0.61;68.85;100423.34;104352;1278;95259;-73
2022/01/10 05:43:09;;;;;;;1.70;1.70;;;;;;;0.64;69.04;100430.88;104200;1280;141286;-71
2022/01/10 05:45:41;;;;;;;1.50;1.50;;;;;;;0.76;69.32;100428.94;104286;1278;108681;-72
2022/01/10 05:48:12;;;;;;;1.60;1.60;;;;;;;0.86;68.45;100435.19;104090;1277;138691;-72
2022/01/10 05:50:43;;;;;;;1.50;1.50;;;;;;;0.75;68.23;100436.45;104221;1278;95755;-72
2022/01/10 05:53:11;;;;;;;1.60;1.60;;;;;;;0.72;68.73;100437.45;104170;1280;138528;-73
2022/01/10 05:55:39;;;;;;;1.60;1.60;;;;;;;0.63;68.61;100439.41;104264;1280;109753;-73
2022/01/10 05:58:09;;;;;;;1.60;1.60;;;;;;;0.66;69.40;100445.59;104257;1278;109250;-73
2022/01/10 06:00:38;;;;;;;1.50;1.50;;;;;;;0.85;68.90;100448.98;104230;1280;137740;-73
2022/01/10 06:03:06;;;;;;;1.50;1.50;;;;;;;0.93;68.46;100445.95;104379;1278;95699;-76
2022/01/10 06:05:42;;;;;;;1.60;1.60;;;;;;;0.95;68.29;100447.73;104319;1280;138176;-71
2022/01/10 06:08:10;;;;;;;1.60;1.60;;;;;;;0.95;68.06;100451.94;104300;1280;108612;-72
2022/01/10 06:10:41;;;;;;;1.50;1.50;;;;;;;0.88;68.21;100458.31;104391;1280;95249;-71
2022/01/10 06:13:16;;;;;;;1.50;1.50;;;;;;;0.89;68.62;100460.93;104147;1280;137701;-71
2022/01/10 06:15:44;;;;;;;1.60;1.60;;;;;;;0.84;68.28;100462.09;103606;1278;108887;-70
2022/01/10 06:18:12;;;;;;;1.50;1.50;;;;;;;0.83;68.83;100467.48;103562;1280;138029;-69
2022/01/10 06:20:39;;;;;;;1.60;1.60;;;;;;;0.93;68.55;100476.02;103391;1280;95653;-67
2022/01/10 06:23:09;;;;;;;1.60;1.60;;;;;;;0.99;68.16;100481.35;103185;1277;137796;-69
2022/01/10 06:25:39;;;;;;;1.70;1.70;;;;;;;1.05;68.41;100486.34;103391;1280;108985;-69
2022/01/10 06:28:07;;;;;;;1.60;1.60;;;;;;;1.24;67.68;100498.14;103293;1280;109791;-68
2022/01/10 06:30:35;;;;;;;1.60;1.60;;;;;;;1.35;67.41;100504.76;103275;1278;137816;-68
2022/01/10 06:33:04;;;;;;;1.60;1.60;;;;;;;1.45;66.92;100513.98;103481;1278;95247;-66
2022/01/10 06:35:33;;;;;;;1.70;1.70;;;;;;;1.45;67.14;100517.64;103254;1278;139038;-65
2022/01/10 06:38:02;;;;;;;1.50;1.50;;;;;;;1.43;66.78;100520.94;103352;1280;110487;-71
2022/01/10 06:40:30;;;;;;;1.40;1.40;;;;;;;1.46;66.82;100528.34;105304;1279;97514;-68
2022/01/10 06:42:58;;;;;;;1.50;1.50;;;;;;;1.49;66.44;100538.17;104232;1278;137855;-69
2022/01/10 06:45:27;;;;;;;1.50;1.50;;;;;;;1.50;66.62;100547.10;103913;1277;108753;-70
2022/01/10 06:47:54;;;;;;;1.70;1.70;;;;;;;1.52;66.28;100553.62;103638;1277;138840;-70
2022/01/10 06:50:24;;;;;;;1.50;1.50;;;;;;;1.51;66.18;100554.65;103546;1280;95234;-68
2022/01/10 06:52:54;;;;;;;1.40;1.40;;;;;;;1.52;66.36;100558.84;103341;1278;96094;-68
2022/01/10 06:55:22;;;;;;;1.50;1.50;;;;;;;1.49;66.41;100566.69;103753;1278;137539;-70
2022/01/10 06:57:51;;;;;;;1.50;1.50;;;;;;;1.53;66.47;100569.89;103509;1278;110176;-69
2022/01/10 07:00:21;;;;;;;1.50;1.50;;;;;;;1.58;66.85;100569.77;104168;1277;138513;-70
2022/01/10 07:02:51;;;;;;;1.50;1.50;;;;;;;1.63;66.12;100575.96;104295;1277;95567;-71
2022/01/10 07:05:19;;;;;;;1.60;1.60;;;;;;;1.63;66.41;100580.17;104146;1278;138351;-70
2022/01/10 07:07:49;;;;;;;1.50;1.50;;;;;;;1.60;66.00;100583.28;104253;1277;110671;-68
2022/01/10 07:10:27;;;;;;;1.50;1.50;;;;;;;1.66;65.98;100589.31;104282;1278;95790;-70
2022/01/10 07:12:56;;;;;;;1.50;1.50;;;;;;;1.63;65.69;100592.60;104175;1278;138506;-70
2022/01/10 07:15:25;;;;;;;1.40;1.40;;;;;;;1.55;66.37;100594.77;104270;1278;108762;-70
2022/01/10 07:17:55;;;;;;;1.50;1.50;;;;;;;1.57;66.18;100597.05;104129;1277;138772;-69
2022/01/10 07:20:23;;;;;;;1.40;1.40;;;;;;;1.70;66.03;100604.94;104274;1280;96245;-70
2022/01/10 07:22:51;;;;;;;1.30;1.30;;;;;;;1.75;65.89;100608.16;104229;1278;95233;-68
2022/01/10 07:25:19;;;;;;;1.30;1.30;;;;;;;1.75;65.62;100613.40;104185;1278;138115;-70
2022/01/10 07:27:47;;;;;;;1.50;1.50;;;;;;;1.71;65.77;100623.15;103860;1278;110546;-67
2022/01/10 07:30:15;;;;;;;1.50;1.50;;;;;;;1.71;65.49;100626.32;103321;1278;138388;-68
2022/01/10 07:32:44;;;;;;;1.60;1.60;;;;;;;1.69;65.42;100634.15;104006;1278;95633;-69
2022/01/10 07:35:12;;;;;;;1.60;1.60;;;;;;;1.64;65.68;100640.39;103394;1279;137831;-70
2022/01/10 07:37:40;;;;;;;1.50;1.50;;;;;;;1.67;66.02;100637.27;103525;1278;109869;-69
2022/01/10 07:40:08;;;;;;;1.60;1.60;;;;;;;1.71;65.61;100637.52;103474;1277;96186;-71
2022/01/10 07:42:36;;;;;;;1.40;1.40;;;;;;;1.73;65.72;100645.77;104399;1277;138506;-68
2022/01/10 07:45:13;;;;;;;1.50;1.50;;;;;;;1.80;65.77;100643.92;104245;1278;109049;-71
2022/01/10 07:47:41;;;;;;;1.50;1.50;;;;;;;1.82;65.40;100649.21;104162;1277;138554;-70
2022/01/10 07:50:09;;;;;;;1.60;1.60;;;;;;;1.79;65.11;100655.83;104260;1278;95656;-70
2022/01/10 07:52:37;;;;;;;1.50;1.50;;;;;;;1.80;65.49;100660.55;104288;1278;95249;-70
2022/01/10 07:55:07;;;;;;;1.50;1.50;;;;;;;1.76;65.40;100666.81;104176;1277;138372;-68
2022/01/10 07:57:35;;;;;;;1.50;1.50;;;;;;;1.75;65.35;100668.55;104310;1277;109740;-70
2022/01/10 08:00:05;;;;;;;1.70;1.70;;;;;;;1.73;65.73;100669.39;104245;1277;138378;-68
2022/01/10 08:02:39;;;;;;;1.50;1.50;;;;;;;1.64;66.08;100673.11;104357;1278;95638;-70
2022/01/10 08:05:09;;;;;;;1.40;1.40;;;;;;;1.73;65.71;100679.54;104166;1278;140627;-68
2022/01/10 08:07:37;;;;;;;1.40;1.40;;;;;;;1.70;65.70;100680.02;103841;1277;109800;-70
2022/01/10 08:10:06;;;;;;;1.50;1.50;;;;;;;1.69;65.73;100680.20;103566;1278;95647;-69
2022/01/10 08:12:34;;;;;;;1.50;1.50;;;;;;;1.72;66.07;100683.91;103472;1278;138366;-69
2022/01/10 08:15:03;;;;;;;1.40;1.40;;;;;;;1.82;65.98;100689.83;104272;1278;108815;-70
2022/01/10 08:17:30;;;;;;;1.40;1.40;;;;;;;1.83;65.42;100698.43;104108;1277;138353;-70
2022/01/10 08:19:58;;;;;;;1.70;1.70;;;;;;;1.79;65.57;100700.81;104253;1277;95214;-69
2022/01/10 08:22:26;;;;;;;1.50;1.50;;;;;;;1.70;65.78;100707.35;104268;1278;95781;-71
2022/01/10 08:24:54;;;;;;;1.40;1.40;;;;;;;1.70;65.56;100708.56;104113;1278;138500;-68
2022/01/10 08:27:21;;;;;;;1.40;1.40;;;;;;;1.72;65.64;100719.09;104266;1278;109807;-69
2022/01/10 08:29:49;;;;;;;1.50;1.50;;;;;;;1.71;65.36;100720.83;104208;1277;138890;-69
2022/01/10 08:32:17;;;;;;;1.40;1.40;;;;;;;1.53;65.42;100728.77;103701;1277;209408;-68
2022/01/10 08:34:46;;;;;;;1.40;1.40;;;;;;;1.46;65.74;100736.88;103856;1277;109075;-68
2022/01/10 08:37:14;;;;;;;1.40;1.40;;;;;;;1.46;66.05;100734.11;103402;1278;138330;-71
2022/01/10 08:39:41;;;;;;;1.40;1.40;;;;;;;1.48;66.30;100744.98;104279;1278;95218;-70
2022/01/10 08:42:10;;;;;;;1.60;1.60;;;;;;;1.45;65.90;100751.04;104095;1278;137901;-70
2022/01/10 08:44:37;;;;;;;1.60;1.60;;;;;;;1.42;66.60;100757.47;103535;1278;109412;-68
2022/01/10 08:47:05;;;;;;;1.50;1.50;;;;;;;1.47;66.17;100761.06;104089;1277;139306;-69
2022/01/10 08:49:33;;;;;;;1.30;1.30;;;;;;;1.46;65.99;100763.13;104324;1278;95258;-69
2022/01/10 08:52:01;;;;;;;1.40;1.40;;;;;;;1.42;65.71;100763.42;104274;1277;95763;-71
2022/01/10 08:54:29;;;;;;;1.50;1.50;;;;;;;1.42;66.23;100765.34;104125;1277;138716;-69
2022/01/10 08:56:57;;;;;;;1.40;1.40;;;;;;;1.52;66.10;100765.86;104240;1278;108515;-70
2022/01/10 08:59:28;;;;;;;1.50;1.50;;;;;;;1.52;65.55;100771.98;104049;1277;138501;-70
2022/01/10 09:01:56;;;;;;;1.50;1.50;;;;;;;1.45;65.31;100773.62;104256;1277;95652;-70
2022/01/10 09:04:25;;;;;;;1.40;1.40;;;;;;;1.42;65.57;100774.80;103914;1277;107289;-69
2022/01/10 09:06:58;;;;;;;1.40;1.40;;;;;;;1.43;65.49;100777.60;103761;1278;139302;-69
2022/01/10 09:09:26;;;;;;;1.40;1.40;;;;;;;1.41;65.47;100779.67;103681;1277;95659;-69
2022/01/10 09:11:54;;;;;;;1.40;1.40;;;;;;;1.40;65.98;100787.36;103425;1277;138238;-71
2022/01/10 09:14:22;;;;;;;1.50;1.50;;;;;;;1.41;65.82;100788.05;103604;1277;108809;-69
2022/01/10 09:16:50;;;;;;;1.40;1.40;;;;;;;1.41;65.58;100792.79;103584;1278;109791;-69
2022/01/10 09:19:18;;;;;;;1.40;1.40;;;;;;;1.30;65.83;100797.16;104106;1278;139508;-69
2022/01/10 09:21:47;;;;;;;1.40;1.40;;;;;;;1.38;66.07;100799.75;104184;1277;95150;-69
2022/01/10 09:24:15;;;;;;;1.40;1.40;;;;;;;1.48;65.93;100807.80;103389;1277;137866;-69
2022/01/10 09:26:43;;;;;;;1.40;1.40;;;;;;;1.56;65.81;100813.52;103532;1277;107625;-68
2022/01/10 09:29:10;;;;;;;1.40;1.40;;;;;;;1.53;65.27;100811.90;103515;1277;138879;-68
2022/01/10 09:31:38;;;;;;;1.30;1.30;;;;;;;1.57;65.59;100813.02;103509;1278;95252;-69
2022/01/10 09:34:06;;;;;;;1.40;1.40;;;;;;;1.60;65.25;100813.25;104195;1277;108791;-70
2022/01/10 09:36:34;;;;;;;1.60;1.60;;;;;;;1.62;65.45;100812.40;103428;1278;137970;-67
2022/01/10 09:39:02;;;;;;;1.40;1.40;;;;;;;1.48;64.62;100817.23;103793;1278;96114;-70
2022/01/10 09:41:30;;;;;;;1.40;1.40;;;;;;;1.42;64.61;100816.78;103439;1278;138557;-68
2022/01/10 09:44:02;;;;;;;1.50;1.50;;;;;;;1.28;65.31;100815.12;103499;1277;108854;-69
2022/01/10 09:46:32;;;;;;;1.60;1.60;;;;;;;1.37;65.18;100816.17;103283;1277;110250;-69
2022/01/10 09:49:02;;;;;;;1.40;1.40;;;;;;;1.39;64.91;100818.48;103721;1278;138781;-69
2022/01/10 09:51:32;;;;;;;1.30;1.30;;;;;;;1.60;65.22;100820.06;104066;1277;95673;-70
2022/01/10 09:54:01;;;;;;;1.40;1.40;;;;;;;1.72;64.08;100822.20;103857;1278;138140;-68
2022/01/10 09:56:29;;;;;;;1.40;1.40;;;;;;;1.85;64.29;100825.56;103354;1277;109736;-69
2022/01/10 09:59:00;;;;;;;1.40;1.40;;;;;;;2.02;63.62;100829.49;103479;1277;95638;-70
2022/01/10 10:01:30;;;;;;;1.30;1.30;;;;;;;2.21;63.97;100829.60;103528;1278;138161;-70
2022/01/10 10:04:02;;;;;;;1.30;1.30;;;;;;;2.34;62.58;100829.45;104262;1277;108828;-70
2022/01/10 10:06:33;;;;;;;1.30;1.30;;;;;;;2.15;61.85;100837.23;104117;1277;137789;-69
2022/01/10 10:09:06;;;;;;;1.50;1.50;;;;;;;2.06;62.84;100838.86;104508;1277;95233;-70
2022/01/10 10:11:39;;;;;;;1.50;1.50;;;;;;;2.16;62.62;100845.11;104284;1277;137767;-67
2022/01/10 10:14:09;;;;;;;1.30;1.30;;;;;;;2.25;62.03;100845.44;103554;1277;108117;-66
2022/01/10 10:16:41;;;;;;;1.40;1.40;;;;;;;2.32;61.88;100844.50;104485;1278;109436;-67
2022/01/10 10:19:09;;;;;;;1.40;1.40;;;;;;;2.40;61.89;100852.13;103438;1277;138441;-70
2022/01/10 10:21:37;;;;;;;1.40;1.40;;;;;;;2.46;61.27;100858.36;103530;1277;95506;-67
2022/01/10 10:24:04;;;;;;;1.40;1.40;;;;;;;2.52;61.24;100861.06;103662;1277;137864;-70
2022/01/10 10:26:32;;;;;;;1.30;1.30;;;;;;;2.63;60.40;100860.70;104328;1277;109419;-69
2022/01/10 10:29:01;;;;;;;1.40;1.40;;;;;;;2.56;60.17;100862.70;104283;1277;95763;-68
2022/01/10 10:31:35;;;;;;;1.30;1.30;;;;;;;2.60;60.38;100863.45;104137;1277;137429;-67
2022/01/10 10:34:05;;;;;;;1.40;1.40;;;;;;;2.62;59.25;100866.83;104466;1277;108983;-68
2022/01/10 10:36:35;;;;;;;1.40;1.40;;;;;;;2.63;60.03;100868.23;104006;1277;137864;-69
2022/01/10 10:39:07;;;;;;;1.30;1.30;;;;;;;2.71;59.61;100866.41;104281;1277;95488;-70
2022/01/10 10:41:35;;;;;;;1.30;1.30;;;;;;;3.06;59.18;100868.26;104400;1277;137911;-70
2022/01/10 10:44:05;;;;;;;1.20;1.20;;;;;;;3.33;57.83;100865.75;104384;1277;108789;-69
2022/01/10 10:46:36;;;;;;;1.20;1.20;;;;;;;3.38;57.24;100870.89;104129;1277;109816;-68
2022/01/10 10:49:04;;;;;;;1.10;1.10;;;;;;;3.35;57.63;100877.00;103325;1277;137960;-68
2022/01/10 10:51:34;;;;;;;1.10;1.10;;;;;;;3.32;56.80;100871.70;103513;1277;95233;-69
2022/01/10 10:54:05;;;;;;;1.20;1.20;;;;;;;3.29;56.96;100877.47;103608;1277;138292;-71
2022/01/10 10:56:39;;;;;;;1.40;1.40;;;;;;;3.17;56.18;100888.73;103623;1277;109268;-70
2022/01/10 10:59:08;;;;;;;1.20;1.20;;;;;;;3.06;56.63;100895.98;103235;1277;138198;-69
2022/01/10 11:01:39;;;;;;;1.20;1.20;;;;;;;2.89;55.97;100899.98;104415;1277;95250;-68
2022/01/10 11:04:09;;;;;;;1.40;1.40;;;;;;;2.52;56.31;100907.00;103630;1277;108934;-67
2022/01/10 11:06:39;;;;;;;1.40;1.40;;;;;;;2.17;56.34;100912.95;103540;1277;140710;-68
2022/01/10 11:09:12;;;;;;;1.40;1.40;;;;;;;1.79;57.05;100909.83;104262;1278;95639;-69
2022/01/10 11:11:43;;;;;;;1.50;1.50;;;;;;;1.74;58.69;100912.04;103691;1277;137912;-67
2022/01/10 11:14:14;;;;;;;1.40;1.40;;;;;;;1.89;58.58;100913.52;103661;1277;108876;-69
2022/01/10 11:16:43;;;;;;;1.30;1.30;;;;;;;1.92;57.40;100914.45;103551;1277;109718;-68
2022/01/10 11:19:13;;;;;;;1.30;1.30;;;;;;;1.87;57.24;100919.27;103374;1281;138344;-67
2022/01/10 11:21:46;;;;;;;1.50;1.50;;;;;;;1.80;57.87;100925.63;103476;1277;95619;-70
2022/01/10 11:25:00;;;;;;;1.30;1.30;;;;;;;1.80;57.74;100924.04;103306;1277;137792;-69
2022/01/10 11:27:28;;;;;;;1.50;1.50;;;;;;;1.84;58.11;100928.33;103420;1277;109722;-67
2022/01/10 11:29:57;;;;;;;1.50;1.50;;;;;;;1.74;57.09;100933.92;103429;1277;138271;-70
2022/01/10 11:32:50;;;;;;;1.40;1.40;;;;;;;1.66;57.72;100938.48;103490;1277;95323;-68
2022/01/10 11:35:42;;;;;;;1.60;1.60;;;;;;;1.53;56.76;100943.14;103380;1277;138739;-67
2022/01/10 11:38:21;;;;;;;1.60;1.60;;;;;;;1.36;57.58;100945.95;103534;1277;110054;-69